Time;durP1;ratioP1;P1;durP2;ratioP2;P2;SDS_P1;SDS_P2;PMS_P1;PMS_P2;Temp;Humidity;BMP_temperature;BMP_pressure;BME280_temperature;BME280_humidity;BME280_pressure;Samples;Min_cycle;Max_cycle;Signal;HPM_P1;HPM_P2
2021/09/29 00:01:47;;;;;;;3.08;1.27;;;;;;;;;;4969639;28;20097;-60
2021/09/29 00:04:12;;;;;;;5.03;1.60;;;;;;;;;;4989271;28;20022;-61
2021/09/29 00:06:37;;;;;;;5.65;1.50;;;;;;;;;;4987057;28;20022;-70
2021/09/29 00:09:03;;;;;;;5.55;1.52;;;;;;;;;;4989028;28;20428;-61
2021/09/29 00:11:28;;;;;;;3.17;1.27;;;;;;;;;;4989608;28;20105;-61
2021/09/29 00:13:54;;;;;;;4.00;1.50;;;;;;;;;;4988003;28;20157;-60
2021/09/29 00:16:19;;;;;;;5.20;1.25;;;;;;;;;;4989216;28;20037;-61
2021/09/29 00:18:45;;;;;;;4.65;1.40;;;;;;;;;;4989983;28;20030;-65
2021/09/29 00:21:10;;;;;;;6.80;1.45;;;;;;;;;;4990478;28;20053;-61
2021/09/29 00:23:36;;;;;;;5.57;1.38;;;;;;;;;;4987963;28;20029;-60
2021/09/29 00:26:01;;;;;;;5.70;1.58;;;;;;;;;;4969525;28;20038;-60
2021/09/29 00:28:26;;;;;;;7.25;1.75;;;;;;;;;;4989042;28;20448;-60
2021/09/29 00:31:02;;;;;;;8.68;1.90;;;;;;;;;;4990500;28;20403;-63
2021/09/29 00:33:28;;;;;;;7.18;1.50;;;;;;;;;;4988333;28;20046;-61
2021/09/29 00:35:53;;;;;;;4.50;1.48;;;;;;;;;;4973211;28;20401;-63
2021/09/29 00:38:19;;;;;;;5.65;1.60;;;;;;;;;;4988151;28;20026;-60
2021/09/29 00:40:44;;;;;;;5.55;1.35;;;;;;;;;;4989210;28;20408;-61
2021/09/29 00:43:10;;;;;;;5.32;1.40;;;;;;;;;;4990058;28;20034;-61
2021/09/29 00:45:35;;;;;;;3.90;1.50;;;;;;;;;;4988044;28;20026;-61
2021/09/29 00:48:00;;;;;;;6.40;1.60;;;;;;;;;;4989816;28;20038;-62
2021/09/29 00:50:26;;;;;;;4.32;1.55;;;;;;;;;;4988485;28;20519;-60
2021/09/29 00:52:51;;;;;;;4.35;1.60;;;;;;;;;;4988379;28;20496;-66
2021/09/29 00:55:17;;;;;;;5.63;1.30;;;;;;;;;;4989157;28;20038;-61
2021/09/29 00:57:42;;;;;;;7.40;1.50;;;;;;;;;;4984371;28;20027;-62
2021/09/29 01:00:09;;;;;;;4.43;1.50;;;;;;;;;;4989833;28;20380;-65
2021/09/29 01:02:35;;;;;;;3.60;1.30;;;;;;;;;;4988982;28;20054;-61
2021/09/29 01:05:02;;;;;;;5.68;1.42;;;;;;;;;;4986912;28;20069;-61
2021/09/29 01:08:08;;;;;;;6.53;1.75;;;;;;;;;;4987587;28;20038;-62
2021/09/29 01:10:55;;;;;;;7.40;1.98;;;;;;;;;;4985995;28;20657;-61
2021/09/29 01:13:29;;;;;;;;;;;;;;;;;;4989352;28;20030;-61
2021/09/29 01:16:02;;;;;;;7.05;1.60;;;;;;;;;;4988917;28;20359;-61
2021/09/29 01:18:29;;;;;;;4.88;1.60;;;;;;;;;;4988220;28;20482;-61
2021/09/29 01:21:00;;;;;;;6.10;1.73;;;;;;;;;;4988999;28;20701;-61
2021/09/29 01:23:28;;;;;;;3.70;1.35;;;;;;;;;;4989424;28;20065;-63
2021/09/29 01:26:15;;;;;;;5.68;1.60;;;;;;;;;;4988697;28;20100;-65
2021/09/29 01:29:01;;;;;;;;;;;;;;;;;;4986578;28;20085;-61
2021/09/29 01:31:28;;;;;;;2.95;1.38;;;;;;;;;;4986140;28;20625;-62
2021/09/29 01:33:54;;;;;;;5.72;1.90;;;;;;;;;;4988424;28;20479;-61
2021/09/29 01:36:21;;;;;;;3.28;1.33;;;;;;;;;;4990272;28;20038;-65
2021/09/29 01:38:55;;;;;;;5.25;1.17;;;;;;;;;;4987158;28;20488;-63
2021/09/29 01:41:22;;;;;;;4.38;1.30;;;;;;;;;;4988244;28;20504;-62
2021/09/29 01:43:48;;;;;;;4.88;1.30;;;;;;;;;;4986877;28;20026;-61
2021/09/29 01:46:14;;;;;;;3.55;1.20;;;;;;;;;;4987633;28;20037;-65
2021/09/29 01:48:53;;;;;;;4.63;1.40;;;;;;;;;;4986163;28;20133;-62
2021/09/29 01:51:20;;;;;;;5.05;1.50;;;;;;;;;;4981503;28;20277;-62
2021/09/29 01:53:47;;;;;;;3.58;1.50;;;;;;;;;;4988154;28;20030;-64
2021/09/29 01:56:12;;;;;;;5.38;1.52;;;;;;;;;;4989257;28;20117;-63
2021/09/29 01:58:37;;;;;;;3.65;1.40;;;;;;;;;;4986748;28;20101;-61
2021/09/29 02:01:03;;;;;;;5.55;1.30;;;;;;;;;;4984573;28;20029;-63
2021/09/29 02:03:28;;;;;;;5.60;1.48;;;;;;;;;;4984786;28;20038;-62
2021/09/29 02:05:54;;;;;;;3.80;1.55;;;;;;;;;;4986600;28;20157;-65
2021/09/29 02:08:19;;;;;;;7.68;1.60;;;;;;;;;;4984725;28;20029;-61
2021/09/29 02:10:45;;;;;;;5.20;1.50;;;;;;;;;;4985759;28;20112;-64
2021/09/29 02:13:11;;;;;;;9.27;1.85;;;;;;;;;;4986761;28;20484;-61
2021/09/29 02:15:37;;;;;;;4.25;1.33;;;;;;;;;;4988503;28;20037;-65
2021/09/29 02:18:02;;;;;;;5.13;1.30;;;;;;;;;;4988403;28;20033;-61
2021/09/29 02:20:28;;;;;;;7.03;1.38;;;;;;;;;;4987159;28;20437;-61
2021/09/29 02:22:53;;;;;;;3.38;1.40;;;;;;;;;;4987682;28;20518;-63
2021/09/29 02:25:19;;;;;;;4.38;1.98;;;;;;;;;;4988867;28;20511;-62
2021/09/29 02:27:44;;;;;;;7.25;1.45;;;;;;;;;;4986948;28;20026;-62
2021/09/29 02:30:12;;;;;;;2.63;1.10;;;;;;;;;;4986715;28;20076;-61
2021/09/29 02:32:38;;;;;;;;;;;;;;;;;;4967947;28;20443;-61
2021/09/29 02:35:09;;;;;;;3.75;1.40;;;;;;;;;;4982415;28;19973;-61
2021/09/29 02:37:34;;;;;;;4.20;1.35;;;;;;;;;;4986419;28;20022;-63
2021/09/29 02:40:00;;;;;;;8.27;1.60;;;;;;;;;;4988493;28;20033;-61
2021/09/29 02:42:25;;;;;;;4.82;1.50;;;;;;;;;;4984052;28;20069;-61
2021/09/29 02:44:50;;;;;;;4.47;1.27;;;;;;;;;;4981755;28;20026;-61
2021/09/29 02:47:16;;;;;;;3.60;1.50;;;;;;;;;;4985791;28;20467;-61
2021/09/29 02:49:41;;;;;;;2.67;1.00;;;;;;;;;;4984827;28;20022;-66
2021/09/29 02:52:07;;;;;;;3.83;1.42;;;;;;;;;;4986134;28;20038;-62
2021/09/29 02:54:32;;;;;;;4.68;1.40;;;;;;;;;;4986688;28;20468;-61
2021/09/29 02:56:57;;;;;;;4.28;1.33;;;;;;;;;;4989818;28;20181;-63
2021/09/29 02:59:23;;;;;;;4.60;1.30;;;;;;;;;;4986932;28;20824;-61
2021/09/29 03:01:48;;;;;;;4.55;1.17;;;;;;;;;;4984824;28;20026;-62
2021/09/29 03:04:13;;;;;;;3.67;1.23;;;;;;;;;;4986049;28;20038;-61
2021/09/29 03:06:39;;;;;;;5.18;1.30;;;;;;;;;;4980583;28;20088;-66
2021/09/29 03:09:04;;;;;;;8.10;1.58;;;;;;;;;;4985657;28;20030;-63
2021/09/29 03:11:30;;;;;;;4.15;1.52;;;;;;;;;;4989853;28;20088;-63
2021/09/29 03:13:55;;;;;;;6.25;1.70;;;;;;;;;;4990533;28;20109;-62
2021/09/29 03:16:21;;;;;;;7.13;1.73;;;;;;;;;;4991313;28;20061;-61
2021/09/29 03:18:48;;;;;;;3.72;1.60;;;;;;;;;;4992912;28;20546;-64
2021/09/29 03:21:15;;;;;;;6.43;2.03;;;;;;;;;;4990591;28;20030;-64
2021/09/29 03:23:41;;;;;;;6.03;1.60;;;;;;;;;;4990117;28;20042;-61
2021/09/29 03:26:06;;;;;;;4.80;1.80;;;;;;;;;;4991827;28;20038;-62
2021/09/29 03:28:32;;;;;;;7.35;2.20;;;;;;;;;;4990175;28;20033;-63
2021/09/29 03:30:57;;;;;;;5.88;2.15;;;;;;;;;;4990056;28;20030;-61
2021/09/29 03:33:23;;;;;;;8.23;2.08;;;;;;;;;;4991246;28;20050;-61
2021/09/29 03:35:48;;;;;;;7.80;2.30;;;;;;;;;;4973699;28;20022;-63
2021/09/29 03:38:13;;;;;;;4.22;2.28;;;;;;;;;;4987693;28;20089;-64
2021/09/29 03:40:39;;;;;;;5.07;1.80;;;;;;;;;;4988680;28;20034;-61
2021/09/29 03:43:05;;;;;;;7.22;1.83;;;;;;;;;;4989124;28;20433;-63
2021/09/29 03:45:30;;;;;;;5.47;1.73;;;;;;;;;;4987896;28;20611;-63
2021/09/29 03:47:56;;;;;;;3.47;1.40;;;;;;;;;;4989427;28;20034;-66
2021/09/29 03:50:21;;;;;;;4.78;1.30;;;;;;;;;;4972515;28;20034;-62
2021/09/29 03:52:47;;;;;;;4.50;1.60;;;;;;;;;;4985164;28;20031;-67
2021/09/29 03:55:12;;;;;;;4.40;1.80;;;;;;;;;;4988316;28;20031;-65
2021/09/29 03:57:39;;;;;;;3.95;1.50;;;;;;;;;;4989132;28;20033;-62
2021/09/29 04:00:07;;;;;;;6.15;1.60;;;;;;;;;;4973771;28;20097;-61
2021/09/29 04:02:32;;;;;;;4.38;1.50;;;;;;;;;;4988973;28;20081;-61
2021/09/29 04:04:58;;;;;;;4.75;1.50;;;;;;;;;;4991413;28;20046;-61
2021/09/29 04:07:24;;;;;;;5.35;1.63;;;;;;;;;;4990235;28;20022;-63
2021/09/29 04:09:50;;;;;;;4.28;1.63;;;;;;;;;;4990075;28;20018;-61
2021/09/29 04:12:15;;;;;;;4.97;1.60;;;;;;;;;;4983776;28;20034;-62
2021/09/29 04:14:40;;;;;;;3.65;1.80;;;;;;;;;;4989035;28;20485;-70
2021/09/29 04:17:06;;;;;;;6.35;1.80;;;;;;;;;;4988443;28;20117;-62
2021/09/29 04:19:31;;;;;;;2.85;1.58;;;;;;;;;;4989633;28;20634;-67
2021/09/29 04:21:57;;;;;;;6.05;1.77;;;;;;;;;;4989257;28;20030;-62
2021/09/29 04:24:23;;;;;;;3.35;1.50;;;;;;;;;;4990656;28;20376;-63
2021/09/29 04:26:48;;;;;;;3.35;1.77;;;;;;;;;;4972037;28;20030;-62
2021/09/29 04:29:14;;;;;;;3.75;1.55;;;;;;;;;;4630151;28;9999603;-61
2021/09/29 04:31:39;;;;;;;3.95;1.67;;;;;;;;;;4956931;28;20443;-69
2021/09/29 04:34:05;;;;;;;3.22;1.70;;;;;;;;;;4979236;28;20086;-61
2021/09/29 04:36:30;;;;;;;4.57;1.73;;;;;;;;;;4961635;28;20126;-61
2021/09/29 04:38:55;;;;;;;5.00;1.90;;;;;;;;;;4961132;28;20062;-61
2021/09/29 04:41:23;;;;;;;4.35;1.70;;;;;;;;;;4978589;28;20133;-64
2021/09/29 04:43:48;;;;;;;4.15;2.10;;;;;;;;;;4969294;28;20026;-64
2021/09/29 04:46:14;;;;;;;7.57;2.78;;;;;;;;;;4976961;28;20049;-62
2021/09/29 04:48:39;;;;;;;5.30;2.15;;;;;;;;;;4975228;28;20038;-63
2021/09/29 04:51:05;;;;;;;5.15;2.30;;;;;;;;;;4975460;28;20034;-61
2021/09/29 04:53:30;;;;;;;6.47;2.40;;;;;;;;;;4972999;28;20042;-62
2021/09/29 04:55:59;;;;;;;7.05;2.33;;;;;;;;;;4976087;28;20035;-65
2021/09/29 04:58:28;;;;;;;5.85;2.42;;;;;;;;;;4974584;28;20112;-62
2021/09/29 05:00:53;;;;;;;4.60;2.60;;;;;;;;;;4974672;28;20080;-62
2021/09/29 05:03:19;;;;;;;6.72;2.50;;;;;;;;;;4974233;28;20038;-62
2021/09/29 05:05:45;;;;;;;4.65;2.33;;;;;;;;;;4976806;28;20026;-61
2021/09/29 05:08:23;;;;;;;3.72;2.45;;;;;;;;;;4976431;28;20038;-64
2021/09/29 05:11:00;;;;;;;5.97;2.58;;;;;;;;;;4976702;28;20080;-65
2021/09/29 05:13:30;;;;;;;3.80;2.10;;;;;;;;;;4976100;28;20065;-62
2021/09/29 05:15:55;;;;;;;7.07;2.30;;;;;;;;;;4975941;28;20026;-64
2021/09/29 05:18:21;;;;;;;3.38;2.20;;;;;;;;;;4972319;28;20539;-63
2021/09/29 05:20:47;;;;;;;4.03;2.60;;;;;;;;;;4974630;28;20137;-62
2021/09/29 05:23:13;;;;;;;8.48;2.10;;;;;;;;;;4976948;28;20027;-63
2021/09/29 05:25:38;;;;;;;3.88;2.20;;;;;;;;;;4974934;28;20090;-63
2021/09/29 05:28:08;;;;;;;9.13;5.35;;;;;;;;;;4973291;28;20041;-62
2021/09/29 05:30:33;;;;;;;9.40;3.33;;;;;;;;;;4977867;28;20811;-64
2021/09/29 05:32:59;;;;;;;11.15;9.02;;;;;;;;;;4975122;28;20030;-62
2021/09/29 05:35:24;;;;;;;6.53;3.05;;;;;;;;;;4974167;28;20046;-63
2021/09/29 05:37:50;;;;;;;11.30;5.30;;;;;;;;;;4973272;28;20031;-61
2021/09/29 05:40:15;;;;;;;6.22;3.25;;;;;;;;;;4969476;28;20035;-61
2021/09/29 05:42:40;;;;;;;6.90;3.03;;;;;;;;;;4970648;28;20030;-62
2021/09/29 05:45:06;;;;;;;5.70;2.60;;;;;;;;;;4971886;28;20459;-63
2021/09/29 05:47:32;;;;;;;4.03;2.70;;;;;;;;;;4971328;28;20622;-62
2021/09/29 05:49:57;;;;;;;5.85;3.83;;;;;;;;;;4954898;28;20117;-63
2021/09/29 05:52:22;;;;;;;5.53;3.25;;;;;;;;;;4964701;28;20518;-61
2021/09/29 05:54:48;;;;;;;5.85;3.80;;;;;;;;;;4971184;28;20044;-65
2021/09/29 05:57:13;;;;;;;7.22;3.75;;;;;;;;;;4954216;28;20112;-61
2021/09/29 05:59:39;;;;;;;5.55;3.28;;;;;;;;;;4971372;28;20030;-66
2021/09/29 06:02:05;;;;;;;5.93;3.33;;;;;;;;;;4969362;28;20779;-61
2021/09/29 06:04:30;;;;;;;5.97;3.40;;;;;;;;;;4969269;28;20026;-62
2021/09/29 06:06:57;;;;;;;6.00;2.80;;;;;;;;;;4952105;28;20038;-64
2021/09/29 06:09:23;;;;;;;8.68;5.72;;;;;;;;;;4969803;28;20038;-62
2021/09/29 06:11:48;;;;;;;9.38;5.63;;;;;;;;;;4971831;28;20050;-63
2021/09/29 06:14:15;;;;;;;7.90;5.00;;;;;;;;;;4974622;28;20476;-66
2021/09/29 06:16:45;;;;;;;12.43;8.23;;;;;;;;;;4971390;28;20070;-62
2021/09/29 06:19:10;;;;;;;7.15;3.25;;;;;;;;;;4974748;28;20438;-62
2021/09/29 06:21:37;;;;;;;7.25;4.47;;;;;;;;;;4972881;28;20029;-62
2021/09/29 06:24:03;;;;;;;7.65;3.70;;;;;;;;;;4974361;28;20034;-64
2021/09/29 06:26:28;;;;;;;10.65;5.72;;;;;;;;;;4969834;28;20034;-62
2021/09/29 06:28:54;;;;;;;5.90;3.80;;;;;;;;;;4974514;28;20034;-64
2021/09/29 06:31:19;;;;;;;7.53;5.32;;;;;;;;;;4955040;28;20034;-61
2021/09/29 06:33:49;;;;;;;4.32;3.30;;;;;;;;;;4970788;28;20046;-64
2021/09/29 06:36:15;;;;;;;6.35;2.42;;;;;;;;;;4973875;28;20036;-63
2021/09/29 06:38:40;;;;;;;3.45;2.40;;;;;;;;;;4974171;28;20037;-62
2021/09/29 06:41:06;;;;;;;6.45;2.65;;;;;;;;;;4979846;28;20026;-65
2021/09/29 06:43:32;;;;;;;5.28;2.35;;;;;;;;;;4948656;28;20061;-64
2021/09/29 06:45:58;;;;;;;6.43;2.80;;;;;;;;;;4968506;28;20030;-63
2021/09/29 06:48:23;;;;;;;7.25;4.05;;;;;;;;;;4971048;28;20408;-61
2021/09/29 06:50:48;;;;;;;9.93;6.38;;;;;;;;;;4968461;28;20085;-61
2021/09/29 06:53:16;;;;;;;9.63;2.78;;;;;;;;;;4970770;28;20047;-61
2021/09/29 06:55:41;;;;;;;;;;;;;;;;;;4973184;28;20034;-62
2021/09/29 06:58:06;;;;;;;8.18;2.63;;;;;;;;;;4969879;28;19973;-62
2021/09/29 07:00:32;;;;;;;7.32;3.60;;;;;;;;;;4966213;28;20073;-62
2021/09/29 07:02:57;;;;;;;4.45;1.83;;;;;;;;;;4959838;28;20026;-61
2021/09/29 07:05:22;;;;;;;4.05;1.73;;;;;;;;;;4968665;28;20499;-62
2021/09/29 07:07:48;;;;;;;3.65;2.30;;;;;;;;;;4969017;28;20033;-61
2021/09/29 07:10:14;;;;;;;3.92;1.92;;;;;;;;;;4972293;28;20094;-62
2021/09/29 07:12:44;;;;;;;3.17;2.00;;;;;;;;;;4968816;28;20055;-62
2021/09/29 07:15:11;;;;;;;3.78;1.80;;;;;;;;;;4970327;28;20037;-64
2021/09/29 07:17:37;;;;;;;2.42;1.75;;;;;;;;;;4980900;28;20065;-63
2021/09/29 07:20:09;;;;;;;2.92;1.67;;;;;;;;;;4967094;28;20038;-63
2021/09/29 07:22:34;;;;;;;3.58;2.00;;;;;;;;;;4955600;28;20036;-61
2021/09/29 07:25:00;;;;;;;4.00;2.28;;;;;;;;;;4974670;28;20042;-68
2021/09/29 07:27:25;;;;;;;7.70;2.15;;;;;;;;;;4973146;28;20058;-65
2021/09/29 07:29:51;;;;;;;6.20;5.60;;;;;;;;;;4968941;28;20031;-63
2021/09/29 07:32:17;;;;;;;3.05;1.80;;;;;;;;;;4974644;28;20185;-64
2021/09/29 07:34:42;;;;;;;3.85;1.85;;;;;;;;;;4970023;28;20144;-63
2021/09/29 07:37:07;;;;;;;3.63;1.73;;;;;;;;;;4972346;28;20049;-62
2021/09/29 07:39:33;;;;;;;2.75;1.80;;;;;;;;;;4968973;28;20045;-61
2021/09/29 07:41:58;;;;;;;6.05;3.95;;;;;;;;;;4972453;28;20034;-64
2021/09/29 07:44:24;;;;;;;8.50;6.57;;;;;;;;;;4957250;28;20031;-63
2021/09/29 07:46:49;;;;;;;4.53;2.78;;;;;;;;;;4970156;28;20030;-61
2021/09/29 07:49:21;;;;;;;3.00;1.90;;;;;;;;;;4968998;28;20043;-61
2021/09/29 07:51:46;;;;;;;3.53;1.80;;;;;;;;;;4970511;28;20369;-62
2021/09/29 07:54:12;;;;;;;5.78;2.83;;;;;;;;;;4971571;28;20037;-62
2021/09/29 07:56:37;;;;;;;2.83;2.03;;;;;;;;;;4972248;28;20432;-61
2021/09/29 07:59:02;;;;;;;5.90;2.25;;;;;;;;;;4975518;28;20050;-64
2021/09/29 08:01:28;;;;;;;4.32;2.05;;;;;;;;;;4976392;28;20030;-65
2021/09/29 08:03:53;;;;;;;5.97;2.17;;;;;;;;;;4968125;28;20722;-62
2021/09/29 08:06:19;;;;;;;3.85;2.25;;;;;;;;;;4962226;28;20053;-64
2021/09/29 08:08:44;;;;;;;8.15;2.72;;;;;;;;;;4969358;28;20027;-61
2021/09/29 08:11:09;;;;;;;8.70;2.50;;;;;;;;;;4974064;28;20042;-63
2021/09/29 08:13:35;;;;;;;10.30;2.65;;;;;;;;;;4958782;28;20765;-62
2021/09/29 08:16:03;;;;;;;4.18;2.40;;;;;;;;;;4969506;28;20105;-63
2021/09/29 08:18:28;;;;;;;7.00;2.63;;;;;;;;;;4968623;28;20038;-62
2021/09/29 08:20:57;;;;;;;6.90;2.75;;;;;;;;;;4969478;28;20030;-65
2021/09/29 08:23:35;;;;;;;5.20;1.90;;;;;;;;;;4968535;28;20161;-63
2021/09/29 08:26:43;;;;;;;9.13;2.72;;;;;;;;;;4983520;28;20085;-61
2021/09/29 08:31:28;;;;;;;5.95;2.05;;;;;;;;;;4968525;28;20031;-62
2021/09/29 08:34:09;;;;;;;5.60;1.63;;;;;;;;;;4972375;28;20061;-61
2021/09/29 08:36:41;;;;;;;4.82;1.63;;;;;;;;;;4969205;28;20118;-64
2021/09/29 08:39:14;;;;;;;6.53;2.38;;;;;;;;;;4974104;28;20034;-65
2021/09/29 08:41:59;;;;;;;3.63;1.77;;;;;;;;;;4969437;28;20023;-64
2021/09/29 08:47:55;;;;;;;5.20;1.42;;;;;;;;;;4974203;28;20450;-61
2021/09/29 09:16:32;;;;;;;4.03;1.13;;;;;;;;;;4974077;28;20129;-62
2021/09/29 09:19:00;;;;;;;4.85;1.20;;;;;;;;;;4971063;28;20034;-63
2021/09/29 09:21:27;;;;;;;6.38;1.13;;;;;;;;;;4976494;28;20100;-62
2021/09/29 09:23:53;;;;;;;4.20;1.00;;;;;;;;;;4973118;28;20044;-62
2021/09/29 09:26:20;;;;;;;3.88;0.85;;;;;;;;;;4965541;28;20492;-61
2021/09/29 09:28:46;;;;;;;4.70;0.90;;;;;;;;;;4976163;28;20461;-62
2021/09/29 09:31:14;;;;;;;2.13;0.70;;;;;;;;;;4972997;28;20072;-64
2021/09/29 09:33:55;;;;;;;2.35;0.90;;;;;;;;;;4974586;28;20049;-62
2021/09/29 09:36:31;;;;;;;4.80;0.85;;;;;;;;;;4979140;28;20026;-61
2021/09/29 09:38:57;;;;;;;2.58;0.70;;;;;;;;;;4981249;28;20869;-62
2021/09/29 09:41:24;;;;;;;2.20;0.75;;;;;;;;;;4979807;28;20038;-62
2021/09/29 09:43:58;;;;;;;3.10;0.85;;;;;;;;;;4978329;28;20030;-62
2021/09/29 09:46:24;;;;;;;15.45;8.25;;;;;;;;;;4979003;28;20110;-62
2021/09/29 09:49:05;;;;;;;4.47;2.70;;;;;;;;;;4979074;28;20113;-62
2021/09/29 09:51:33;;;;;;;3.47;1.60;;;;;;;;;;4977680;28;20131;-62
2021/09/29 09:53:59;;;;;;;1.80;0.60;;;;;;;;;;4977929;28;20576;-63
2021/09/29 09:56:30;;;;;;;2.27;0.80;;;;;;;;;;4979117;28;20033;-63
2021/09/29 09:58:58;;;;;;;2.85;0.88;;;;;;;;;;4961210;28;20023;-63
2021/09/29 10:01:31;;;;;;;4.20;0.82;;;;;;;;;;4977276;28;20572;-64
2021/09/29 10:04:11;;;;;;;8.82;3.75;;;;;;;;;;4979189;28;20081;-63
2021/09/29 10:06:36;;;;;;;6.68;3.30;;;;;;;;;;4958360;28;20033;-65
2021/09/29 10:12:18;;;;;;;2.72;0.68;;;;;;;;;;4966369;28;20054;-62
2021/09/29 10:23:09;;;;;;;3.97;1.67;;;;;;;;;;4977141;28;20032;-64
2021/09/29 10:28:32;;;;;;;4.43;1.50;;;;;;;;;;4976153;28;20121;-61
2021/09/29 10:33:32;;;;;;;2.15;0.80;;;;;;;;;;4979776;28;20116;-61
2021/09/29 10:40:58;;;;;;;1.00;0.30;;;;;;;;;;4979742;28;20027;-62
2021/09/29 11:31:03;;;;;;;0.50;0.22;;;;;;;;;;4986578;28;20026;-61
2021/09/29 11:33:39;;;;;;;16.10;7.57;;;;;;;;;;4977677;28;20046;-62
2021/09/29 11:36:14;;;;;;;5.03;1.65;;;;;;;;;;4974253;28;20027;-61
2021/09/29 12:14:46;;;;;;;0.20;0.10;;;;;;;;;;4991527;28;20030;-63
2021/09/29 12:17:12;;;;;;;0.80;0.10;;;;;;;;;;4972534;28;20030;-62
2021/09/29 12:19:40;;;;;;;0.57;0.10;;;;;;;;;;4990692;28;20174;-62
2021/09/29 12:22:16;;;;;;;0.55;0.17;;;;;;;;;;4989253;28;20041;-62
2021/09/29 12:30:21;;;;;;;1.90;0.20;;;;;;;;;;4982281;28;20026;-62
2021/09/29 12:35:46;;;;;;;0.20;0.10;;;;;;;;;;4988468;28;20065;-66
2021/09/29 12:38:12;;;;;;;0.28;0.10;;;;;;;;;;4987781;28;20026;-62
2021/09/29 12:40:41;;;;;;;0.68;0.20;;;;;;;;;;4989155;28;20042;-65
2021/09/29 12:43:15;;;;;;;1.67;0.10;;;;;;;;;;4989671;28;20030;-62
2021/09/29 12:45:43;;;;;;;0.55;0.10;;;;;;;;;;4990136;28;20037;-61
2021/09/29 12:48:11;;;;;;;0.40;0.10;;;;;;;;;;4986602;28;20042;-62
2021/09/29 12:50:54;;;;;;;0.17;0.10;;;;;;;;;;4988992;28;20026;-63
2021/09/29 12:56:17;;;;;;;0.37;0.20;;;;;;;;;;4991009;28;20432;-62
2021/09/29 12:58:44;;;;;;;0.32;0.22;;;;;;;;;;4990516;28;20080;-61
2021/09/29 13:01:09;;;;;;;0.50;0.10;;;;;;;;;;4989465;28;20042;-61
2021/09/29 13:03:35;;;;;;;0.77;0.20;;;;;;;;;;4988518;28;20704;-64
2021/09/29 13:06:00;;;;;;;1.88;0.10;;;;;;;;;;4972704;28;20058;-61
2021/09/29 13:08:27;;;;;;;0.40;0.10;;;;;;;;;;4989006;28;20026;-62
2021/09/29 13:10:52;;;;;;;0.25;0.20;;;;;;;;;;4973043;28;20137;-62
2021/09/29 13:13:18;;;;;;;0.75;0.20;;;;;;;;;;4985786;28;20113;-61
2021/09/29 13:15:45;;;;;;;0.35;0.20;;;;;;;;;;4976205;28;20577;-60
2021/09/29 13:18:44;;;;;;;0.73;0.20;;;;;;;;;;4996593;28;20480;-61
2021/09/29 13:21:05;;;;;;;1.90;0.20;;;;;;;;;;4989231;28;20046;-63
2021/09/29 13:23:38;;;;;;;0.15;0.10;;;;;;;;;;4970853;28;20069;-62
2021/09/29 13:36:45;;;;;;;1.13;0.22;;;;;;;;;;4989866;28;20037;-62
2021/09/29 13:39:14;;;;;;;0.82;0.20;;;;;;;;;;4977801;28;20018;-62
2021/09/29 13:41:41;;;;;;;1.25;0.20;;;;;;;;;;4961143;28;20166;-63
2021/09/29 13:44:08;;;;;;;1.27;0.30;;;;;;;;;;4990424;28;20578;-62
2021/09/29 13:46:34;;;;;;;0.55;0.20;;;;;;;;;;4989914;28;20100;-63
2021/09/29 13:49:01;;;;;;;1.52;0.20;;;;;;;;;;4986780;28;20643;-62
2021/09/29 13:51:29;;;;;;;2.25;0.30;;;;;;;;;;4968898;28;20077;-62
2021/09/29 13:53:55;;;;;;;1.00;0.32;;;;;;;;;;4969227;28;20086;-61
2021/09/29 13:56:24;;;;;;;1.65;0.30;;;;;;;;;;4970375;28;20083;-63
2021/09/29 13:59:07;;;;;;;0.55;0.20;;;;;;;;;;4979797;28;20105;-61
2021/09/29 14:01:59;;;;;;;2.55;0.30;;;;;;;;;;4974023;28;20042;-63
2021/09/29 14:31:51;;;;;;;1.25;0.30;;;;;;;;;;4968149;28;20122;-61
2021/09/29 14:34:17;;;;;;;0.90;0.30;;;;;;;;;;4971550;28;20053;-63
2021/09/29 14:36:42;;;;;;;0.57;0.35;;;;;;;;;;4987000;28;20104;-65
2021/09/29 14:39:08;;;;;;;1.73;0.30;;;;;;;;;;4985426;28;20147;-63
2021/09/29 14:41:34;;;;;;;2.55;0.50;;;;;;;;;;4983390;28;20092;-62
2021/09/29 14:43:59;;;;;;;1.02;0.30;;;;;;;;;;4986484;28;20041;-62
2021/09/29 14:46:25;;;;;;;2.00;0.40;;;;;;;;;;4988546;28;20030;-63
2021/09/29 14:48:50;;;;;;;0.93;0.40;;;;;;;;;;4984533;28;20028;-63
2021/09/29 14:51:16;;;;;;;1.55;0.30;;;;;;;;;;4984923;28;20033;-62
2021/09/29 14:53:41;;;;;;;1.90;0.30;;;;;;;;;;4985947;28;20396;-63
2021/09/29 14:56:08;;;;;;;1.45;0.35;;;;;;;;;;4988147;28;20739;-63
2021/09/29 14:58:36;;;;;;;1.85;0.40;;;;;;;;;;4984010;28;20022;-65
2021/09/29 15:01:02;;;;;;;1.48;0.40;;;;;;;;;;4950324;28;20085;-62
2021/09/29 15:03:27;;;;;;;5.13;0.47;;;;;;;;;;4949980;28;20022;-62
2021/09/29 15:05:54;;;;;;;2.08;0.30;;;;;;;;;;4983576;28;20624;-61
2021/09/29 15:08:20;;;;;;;1.58;0.55;;;;;;;;;;4986821;28;20379;-64
2021/09/29 15:10:46;;;;;;;0.90;0.30;;;;;;;;;;4970242;28;20760;-63
2021/09/29 15:13:14;;;;;;;1.88;0.45;;;;;;;;;;4985534;28;20034;-63
2021/09/29 15:15:58;;;;;;;3.25;0.40;;;;;;;;;;4979830;28;20034;-63
2021/09/29 15:19:07;;;;;;;2.15;0.40;;;;;;;;;;4971258;28;20019;-62
2021/09/29 15:26:30;;;;;;;3.97;0.47;;;;;;;;;;4987566;28;20041;-61
2021/09/29 15:29:18;;;;;;;0.93;0.40;;;;;;;;;;4976796;28;20031;-61
2021/09/29 15:50:28;;;;;;;1.23;0.40;;;;;;;;;;4986587;28;20073;-60
2021/09/29 16:08:38;;;;;;;2.25;0.40;;;;;;;;;;4979179;28;20384;-64
2021/09/29 16:16:23;;;;;;;1.65;0.50;;;;;;;;;;4988060;28;20552;-62
2021/09/29 16:18:57;;;;;;;1.42;0.75;;;;;;;;;;4990413;28;20551;-61
2021/09/29 16:35:09;;;;;;;2.55;0.70;;;;;;;;;;4989623;28;20074;-63
2021/09/29 16:37:35;;;;;;;4.30;1.00;;;;;;;;;;4989197;28;20022;-61
2021/09/29 16:40:01;;;;;;;2.38;0.80;;;;;;;;;;4990216;28;20054;-61
2021/09/29 16:42:27;;;;;;;1.70;0.60;;;;;;;;;;4980462;28;20121;-61
2021/09/29 16:44:53;;;;;;;1.80;0.80;;;;;;;;;;4990262;28;20472;-61
2021/09/29 16:47:19;;;;;;;1.65;0.80;;;;;;;;;;4988693;28;20502;-62
2021/09/29 16:49:44;;;;;;;1.00;0.60;;;;;;;;;;4990706;28;20396;-61
2021/09/29 16:54:37;;;;;;;1.10;0.60;;;;;;;;;;4982753;28;20042;-61
2021/09/29 16:57:47;;;;;;;1.25;0.45;;;;;;;;;;4973648;28;20131;-62
2021/09/29 17:00:05;;;;;;;1.52;0.30;;;;;;;;;;4963219;28;20042;-62
2021/09/29 17:02:30;;;;;;;1.13;0.43;;;;;;;;;;4967592;28;20037;-62
2021/09/29 17:04:56;;;;;;;2.17;0.30;;;;;;;;;;4989939;28;20022;-62
2021/09/29 17:07:21;;;;;;;1.95;0.25;;;;;;;;;;4968843;28;20030;-65
2021/09/29 17:09:46;;;;;;;1.20;0.30;;;;;;;;;;4982606;28;20518;-62
2021/09/29 17:12:14;;;;;;;2.08;0.40;;;;;;;;;;4978930;28;20057;-63
2021/09/29 17:14:39;;;;;;;1.20;0.30;;;;;;;;;;4969427;28;20034;-61
2021/09/29 17:17:05;;;;;;;1.23;0.40;;;;;;;;;;4972652;28;20026;-62
2021/09/29 17:19:30;;;;;;;0.85;0.45;;;;;;;;;;4955636;28;20027;-62
2021/09/29 17:21:58;;;;;;;0.75;0.40;;;;;;;;;;4967848;28;20035;-62
2021/09/29 17:24:25;;;;;;;3.72;0.65;;;;;;;;;;4970187;28;20027;-61
2021/09/29 17:26:51;;;;;;;2.70;0.50;;;;;;;;;;4969996;28;20038;-61
2021/09/29 17:29:17;;;;;;;1.83;0.65;;;;;;;;;;4973218;28;20054;-62
2021/09/29 17:34:21;;;;;;;6.80;1.92;;;;;;;;;;4986191;28;20754;-61
2021/09/29 17:53:10;;;;;;;1.27;0.38;;;;;;;;;;4982506;28;20061;-62
2021/09/29 17:55:38;;;;;;;1.27;0.25;;;;;;;;;;4985514;28;20030;-63
2021/09/29 17:58:04;;;;;;;0.85;0.25;;;;;;;;;;4985119;28;20030;-62
2021/09/29 18:00:33;;;;;;;1.83;0.43;;;;;;;;;;4987417;28;20579;-64
2021/09/29 18:03:02;;;;;;;0.95;0.38;;;;;;;;;;4995679;28;20105;-62
2021/09/29 18:05:33;;;;;;;2.60;0.63;;;;;;;;;;4974336;28;20034;-61
2021/09/29 18:07:59;;;;;;;1.13;0.40;;;;;;;;;;4985059;28;20136;-62
2021/09/29 18:10:26;;;;;;;1.50;0.40;;;;;;;;;;4976005;28;20103;-62
2021/09/29 18:12:52;;;;;;;2.22;0.40;;;;;;;;;;4972763;28;20045;-65
2021/09/29 18:15:17;;;;;;;2.35;0.52;;;;;;;;;;4982458;28;20031;-61
2021/09/29 18:17:43;;;;;;;6.35;1.23;;;;;;;;;;4987585;28;20619;-60
2021/09/29 18:20:10;;;;;;;2.60;0.80;;;;;;;;;;4985812;28;20019;-61
2021/09/29 18:22:37;;;;;;;2.05;0.60;;;;;;;;;;4983100;28;20269;-60
2021/09/29 18:25:04;;;;;;;0.93;0.50;;;;;;;;;;4988106;28;20041;-61
2021/09/29 18:27:29;;;;;;;1.63;0.52;;;;;;;;;;4988108;28;20089;-66
2021/09/29 18:29:57;;;;;;;2.58;0.90;;;;;;;;;;4987721;28;20024;-63
2021/09/29 18:32:22;;;;;;;;;;;;;;;;;;4988880;28;20189;-59
2021/09/29 18:34:48;;;;;;;2.63;0.55;;;;;;;;;;4988458;28;20016;-60
2021/09/29 18:37:14;;;;;;;1.98;0.70;;;;;;;;;;4963555;28;20037;-59
2021/09/29 18:39:41;;;;;;;1.45;0.52;;;;;;;;;;4967807;28;20019;-61
2021/09/29 18:42:07;;;;;;;2.65;0.70;;;;;;;;;;4976918;28;20034;-60
2021/09/29 18:44:39;;;;;;;1.90;0.60;;;;;;;;;;4968992;28;20033;-66
2021/09/29 18:47:11;;;;;;;2.05;0.73;;;;;;;;;;4985798;28;20484;-60
2021/09/29 18:49:37;;;;;;;2.33;0.70;;;;;;;;;;4986724;28;20029;-61
2021/09/29 18:52:04;;;;;;;3.67;0.65;;;;;;;;;;4983609;28;20065;-60
2021/09/29 18:54:36;;;;;;;0.65;0.35;;;;;;;;;;4979719;28;20576;-60
2021/09/29 19:08:05;;;;;;;0.95;0.60;;;;;;;;;;4987405;28;20202;-60
2021/09/29 19:10:31;;;;;;;2.20;0.60;;;;;;;;;;4987946;28;20041;-63
2021/09/29 19:12:57;;;;;;;2.08;0.70;;;;;;;;;;4988195;28;20104;-60
2021/09/29 19:15:23;;;;;;;2.55;0.50;;;;;;;;;;4966484;28;20069;-64
2021/09/29 19:17:48;;;;;;;1.95;0.65;;;;;;;;;;4984403;28;20039;-64
2021/09/29 19:20:14;;;;;;;2.00;0.65;;;;;;;;;;4987016;28;20037;-66
2021/09/29 19:22:42;;;;;;;5.10;0.50;;;;;;;;;;4970595;28;20038;-60
2021/09/29 19:25:08;;;;;;;3.00;0.70;;;;;;;;;;4981150;28;20117;-69